createdAt,value
2018-12-15T00:01:58.825Z,47.83
2018-12-15T00:06:10.819Z,27.00
2018-12-15T00:10:23.022Z,28.87
2018-12-15T00:14:35.135Z,30.17
2018-12-15T00:18:47.251Z,12.97
2018-12-15T00:22:59.346Z,16.23
2018-12-15T00:27:11.442Z,11.57
2018-12-15T00:31:23.648Z,13.73
2018-12-15T00:35:35.350Z,14.50
2018-12-15T00:39:47.498Z,17.83
2018-12-15T00:43:59.308Z,19.13
2018-12-15T00:48:11.331Z,15.47
2018-12-15T00:52:24.046Z,20.37
2018-12-15T00:56:35.967Z,11.87
2018-12-15T01:00:47.852Z,14.30
2018-12-15T01:04:59.828Z,11.67
2018-12-15T01:09:11.835Z,17.07
2018-12-15T01:13:24.118Z,17.20
2018-12-15T01:17:35.669Z,16.90
2018-12-15T01:21:47.776Z,11.83
2018-12-15T01:25:59.379Z,13.33
2018-12-15T01:30:11.339Z,21.43
2018-12-15T01:34:23.340Z,10.33
2018-12-15T01:38:35.447Z,10.07
2018-12-15T01:42:47.555Z,9.03
2018-12-15T01:46:59.656Z,11.10
2018-12-15T01:51:11.750Z,8.67
2018-12-15T01:55:23.337Z,16.57
2018-12-15T01:59:35.727Z,14.37
2018-12-15T02:03:47.326Z,11.87
2018-12-15T02:07:59.329Z,12.57
2018-12-15T02:12:11.130Z,13.10
2018-12-15T02:16:22.956Z,11.97
2018-12-15T02:20:34.907Z,14.00
2018-12-15T02:24:46.936Z,14.67
2018-12-15T02:28:59.001Z,13.87
2018-12-15T02:33:11.095Z,12.87
2018-12-15T02:37:22.671Z,13.63
2018-12-15T02:41:35.070Z,10.67
2018-12-15T02:45:46.783Z,11.30
2018-12-15T02:49:58.632Z,11.87
2018-12-15T02:54:10.728Z,9.60
2018-12-15T02:58:22.253Z,14.93
2018-12-15T03:02:33.980Z,15.30
2018-12-15T03:06:45.736Z,11.87
2018-12-15T03:10:57.766Z,13.60
2018-12-15T03:15:09.756Z,9.30
2018-12-15T03:19:21.842Z,13.43
2018-12-15T03:23:35.491Z,5.43
2018-12-15T03:27:47.495Z,9.20
2018-12-15T03:31:59.608Z,5.97
2018-12-15T03:36:11.780Z,6.63
2018-12-15T03:40:23.862Z,5.33
2018-12-15T03:44:35.880Z,7.53
2018-12-15T03:48:47.836Z,8.30
2018-12-15T03:53:00.040Z,7.77
2018-12-15T03:57:11.741Z,5.00
2018-12-15T04:01:23.591Z,7.23
2018-12-15T04:05:35.335Z,10.17
2018-12-15T04:09:47.360Z,7.60
2018-12-15T04:13:59.474Z,5.87
2018-12-15T04:18:11.106Z,7.97
2018-12-15T04:22:23.296Z,9.47
2018-12-15T04:26:35.010Z,11.27
2018-12-15T04:30:46.920Z,12.63
2018-12-15T04:34:58.784Z,7.50
2018-12-15T04:39:11.025Z,7.63
2018-12-15T04:43:22.890Z,10.53
2018-12-15T04:47:35.082Z,10.80
2018-12-15T04:51:47.196Z,14.43
2018-12-15T04:55:58.722Z,12.93
2018-12-15T05:00:10.568Z,10.27
2018-12-15T05:04:22.415Z,17.93
2018-12-15T05:08:34.310Z,23.30
2018-12-15T05:12:46.418Z,28.57
2018-12-15T05:16:58.523Z,23.73
2018-12-15T05:21:10.700Z,22.37
2018-12-15T05:25:23.002Z,20.73
2018-12-15T05:29:35.391Z,14.73
2018-12-15T05:33:47.156Z,18.63
2018-12-15T05:37:59.116Z,15.57
2018-12-15T05:42:11.079Z,14.00
2018-12-15T05:46:23.083Z,15.17
2018-12-15T05:50:35.271Z,16.50
2018-12-15T05:54:46.808Z,14.27
2018-12-15T05:58:58.533Z,25.83
2018-12-15T06:03:10.336Z,28.80
2018-12-15T06:07:22.290Z,28.03
2018-12-15T06:11:34.422Z,29.03
2018-12-15T06:15:46.423Z,20.27
2018-12-15T06:19:58.531Z,16.90
2018-12-15T06:24:10.523Z,18.70
2018-12-15T06:28:22.707Z,19.57
2018-12-15T06:32:34.835Z,23.33
2018-12-15T06:36:46.851Z,28.57
2018-12-15T06:40:58.979Z,23.00
2018-12-15T06:45:11.123Z,39.70
2018-12-15T06:49:24.119Z,33.70
2018-12-15T06:53:35.911Z,26.70
2018-12-15T06:57:47.886Z,32.50
2018-12-15T07:01:59.644Z,26.17
2018-12-15T07:06:11.506Z,30.87
2018-12-15T07:10:23.718Z,24.10
2018-12-15T07:14:35.806Z,26.37
2018-12-15T07:18:47.808Z,29.50
2018-12-15T07:23:00.107Z,26.60
2018-12-15T07:27:12.243Z,88.17
2018-12-15T07:31:24.470Z,129.33
2018-12-15T07:35:36.557Z,81.87
2018-12-15T07:39:49.346Z,68.10
2018-12-15T07:44:01.146Z,35.40
2018-12-15T07:48:12.990Z,129.10
2018-12-15T07:52:25.146Z,51.37
2018-12-15T07:56:38.495Z,16.77
2018-12-15T08:00:50.757Z,14.80
2018-12-15T08:05:02.987Z,17.90
2018-12-15T08:09:15.150Z,10.47
2018-12-15T08:13:29.426Z,8.47
2018-12-15T08:17:41.217Z,17.43
2018-12-15T08:21:53.307Z,16.33
2018-12-15T08:26:05.249Z,15.27
2018-12-15T08:30:17.499Z,65.83
2018-12-15T08:34:29.552Z,146.13
2018-12-15T08:38:41.661Z,12.77
2018-12-15T08:42:53.886Z,11.73
2018-12-15T08:47:05.996Z,9.57
2018-12-15T08:51:18.437Z,10.10
2018-12-15T08:55:30.631Z,10.80
2018-12-15T08:59:42.623Z,10.60
2018-12-15T09:03:54.635Z,26.33
2018-12-15T09:08:06.632Z,19.70
2018-12-15T09:12:18.747Z,10.07
2018-12-15T09:16:30.836Z,8.83
2018-12-15T09:20:45.566Z,11.23
2018-12-15T09:24:57.448Z,25.70
2018-12-15T09:29:09.250Z,41.03
2018-12-15T09:33:21.133Z,28.40
2018-12-15T09:37:33.177Z,25.73
2018-12-15T09:41:45.282Z,36.00
2018-12-15T09:45:57.287Z,41.03
2018-12-15T09:50:09.374Z,40.07
2018-12-15T09:54:21.362Z,45.97
2018-12-15T09:58:33.488Z,40.57
2018-12-15T10:02:45.649Z,33.70
2018-12-15T10:06:57.760Z,35.50
2018-12-15T10:11:09.911Z,39.23
2018-12-15T10:15:21.986Z,45.53
2018-12-15T10:19:34.098Z,38.73
2018-12-15T10:23:46.227Z,37.93
2018-12-15T10:27:57.836Z,48.40
2018-12-15T10:32:14.507Z,35.27
2018-12-15T10:36:26.299Z,45.97
2018-12-15T10:40:38.240Z,43.23
2018-12-15T10:44:50.326Z,44.03
2018-12-15T10:49:01.885Z,45.17
2018-12-15T10:53:13.679Z,49.63
2018-12-15T10:57:25.536Z,43.23
2018-12-15T11:01:37.507Z,43.60
2018-12-15T11:05:49.450Z,51.73
2018-12-15T11:10:01.565Z,52.17
2018-12-15T11:14:18.894Z,52.57
2018-12-15T11:18:30.696Z,58.27
2018-12-15T11:22:42.738Z,48.13
2018-12-15T11:26:54.617Z,57.77
2018-12-15T11:31:06.747Z,46.87
2018-12-15T11:35:18.860Z,48.93
2018-12-15T11:39:30.828Z,47.47
2018-12-15T11:43:42.864Z,50.00
2018-12-15T11:47:54.842Z,35.90
2018-12-15T11:52:07.010Z,46.93
2018-12-15T11:56:20.218Z,51.23
2018-12-15T12:00:31.923Z,49.70
2018-12-15T12:04:43.918Z,53.30
2018-12-15T12:08:55.828Z,42.73
2018-12-15T12:13:07.857Z,49.53
2018-12-15T12:17:19.615Z,48.63
2018-12-15T12:21:31.516Z,45.40
2018-12-15T12:25:44.898Z,41.30
2018-12-15T12:29:58.227Z,60.93
2018-12-15T12:34:09.802Z,44.10
2018-12-15T12:38:21.507Z,44.27
2018-12-15T12:42:33.311Z,35.20
2018-12-15T12:46:45.171Z,45.50
2018-12-15T12:50:57.173Z,47.60
2018-12-15T12:55:10.090Z,42.73
2018-12-15T12:59:21.925Z,43.23
2018-12-15T13:03:33.872Z,47.07
2018-12-15T13:07:45.912Z,45.70
2018-12-15T13:11:58.067Z,43.97
2018-12-15T13:16:10.032Z,46.60
2018-12-15T13:20:22.194Z,57.47
2018-12-15T13:24:34.247Z,50.57
2018-12-15T13:28:46.360Z,43.13
2018-12-15T13:32:58.454Z,44.37
2018-12-15T13:37:10.484Z,40.73
2018-12-15T13:41:22.632Z,39.37
2018-12-15T13:45:34.688Z,43.43
2018-12-15T13:49:46.805Z,37.93
2018-12-15T13:53:58.926Z,39.37
2018-12-15T13:58:10.808Z,31.07
2018-12-15T14:02:23.037Z,50.40
2018-12-15T14:06:34.857Z,39.27
2018-12-15T14:10:46.615Z,43.87
2018-12-15T14:14:58.767Z,45.27
2018-12-15T14:19:10.467Z,42.23
2018-12-15T14:23:22.324Z,53.63
2018-12-15T14:27:34.243Z,48.37
2018-12-15T14:31:46.347Z,40.97
2018-12-15T14:35:58.476Z,29.67
2018-12-15T14:40:10.667Z,36.00
2018-12-15T14:44:22.768Z,46.20
2018-12-15T14:48:34.870Z,33.63
2018-12-15T14:52:46.975Z,38.03
2018-12-15T14:56:58.991Z,40.43
2018-12-15T15:01:11.190Z,39.07
2018-12-15T15:05:23.551Z,38.73
2018-12-15T15:09:35.546Z,48.33
2018-12-15T15:13:47.539Z,33.57
2018-12-15T15:17:59.539Z,41.43
2018-12-15T15:22:12.378Z,34.80
2018-12-15T15:26:24.099Z,45.07
2018-12-15T15:30:35.947Z,44.27
2018-12-15T15:34:47.764Z,37.30
2018-12-15T15:38:59.928Z,38.60
2018-12-15T15:43:12.130Z,56.70
2018-12-15T15:47:24.078Z,34.70
2018-12-15T15:51:36.208Z,37.63
2018-12-15T15:55:48.188Z,47.37
2018-12-15T16:00:00.366Z,39.27
2018-12-15T16:04:12.423Z,42.97
2018-12-15T16:08:24.546Z,35.00
2018-12-15T16:12:36.783Z,38.47
2018-12-15T16:16:48.660Z,43.20
2018-12-15T16:21:01.000Z,38.67
2018-12-15T16:25:12.975Z,44.40
2018-12-15T16:29:25.179Z,33.13
2018-12-15T16:33:37.712Z,44.83
2018-12-15T16:37:49.623Z,42.63
2018-12-15T16:42:01.614Z,33.63
2018-12-15T16:46:13.645Z,40.17
2018-12-15T16:50:25.739Z,41.93
2018-12-15T16:54:37.761Z,43.13
2018-12-15T16:58:49.818Z,37.93
2018-12-15T17:03:01.945Z,52.13
2018-12-15T17:07:13.935Z,71.87
2018-12-15T17:11:26.139Z,38.83
2018-12-15T17:15:38.939Z,29.57
2018-12-15T17:19:50.606Z,29.30
2018-12-15T17:24:05.310Z,36.07
2018-12-15T17:28:16.947Z,30.50
2018-12-15T17:32:28.780Z,28.03
2018-12-15T17:36:40.490Z,39.40
2018-12-15T17:40:52.442Z,34.17
2018-12-15T17:45:04.477Z,29.83
2018-12-15T17:49:16.362Z,34.90
2018-12-15T17:53:28.357Z,73.67
2018-12-15T17:57:40.458Z,41.70
2018-12-15T18:01:52.728Z,35.73
2018-12-15T18:06:04.763Z,30.97
2018-12-15T18:10:17.049Z,29.97
2018-12-15T18:14:29.079Z,32.30
2018-12-15T18:18:41.134Z,27.63
2018-12-15T18:22:53.210Z,28.03
2018-12-15T18:27:05.114Z,32.77
2018-12-15T18:31:17.226Z,25.53
2018-12-15T18:35:29.238Z,32.03
2018-12-15T18:39:41.432Z,32.23
2018-12-15T18:43:53.438Z,28.70
2018-12-15T18:48:05.118Z,25.43
2018-12-15T18:52:16.886Z,34.27
2018-12-15T18:56:28.931Z,35.13
2018-12-15T19:00:40.684Z,23.90
2018-12-15T19:04:52.563Z,27.70
2018-12-15T19:09:05.403Z,28.63
2018-12-15T19:13:17.803Z,18.33
2018-12-15T19:17:29.991Z,21.43
2018-12-15T19:21:42.123Z,24.50
2018-12-15T19:25:54.211Z,22.03
2018-12-15T19:30:07.449Z,23.20
2018-12-15T19:34:19.147Z,19.23
2018-12-15T19:38:31.306Z,23.33
2018-12-15T19:42:44.007Z,17.93
2018-12-15T19:46:56.082Z,33.53
2018-12-15T19:51:07.841Z,31.03
2018-12-15T19:55:19.686Z,39.70
2018-12-15T19:59:31.500Z,51.77
2018-12-15T20:03:43.616Z,26.83
2018-12-15T20:07:55.695Z,20.77
2018-12-15T20:12:07.815Z,21.83
2018-12-15T20:16:19.815Z,23.90
2018-12-15T20:20:32.059Z,30.60
2018-12-15T20:24:44.240Z,19.90
2018-12-15T20:28:56.359Z,28.80
2018-12-15T20:33:08.463Z,27.70
2018-12-15T20:37:20.556Z,31.30
2018-12-15T20:41:32.682Z,34.77
2018-12-15T20:45:44.884Z,23.87
2018-12-15T20:49:56.994Z,22.43
2018-12-15T20:54:09.159Z,24.27
2018-12-15T20:58:21.119Z,31.47
2018-12-15T21:02:33.288Z,32.07
2018-12-15T21:06:45.324Z,22.70
2018-12-15T21:10:57.440Z,41.33
2018-12-15T21:15:18.468Z,25.67
2018-12-15T21:19:30.197Z,43.90
2018-12-15T21:23:41.999Z,37.00
2018-12-15T21:27:53.778Z,35.00
2018-12-15T21:32:05.767Z,30.13
2018-12-15T21:36:17.888Z,28.30
2018-12-15T21:40:29.882Z,23.23
2018-12-15T21:44:41.982Z,24.67
2018-12-15T21:48:54.082Z,27.33
2018-12-15T21:53:06.164Z,23.33
2018-12-15T21:57:18.469Z,25.00
2018-12-15T22:01:30.531Z,28.97
2018-12-15T22:05:42.616Z,29.67
2018-12-15T22:09:54.749Z,25.93
2018-12-15T22:14:06.940Z,26.47
2018-12-15T22:18:19.047Z,26.23
2018-12-15T22:22:31.279Z,23.07
2018-12-15T22:26:42.809Z,24.87
2018-12-15T22:30:54.527Z,21.03
2018-12-15T22:35:06.492Z,20.83
2018-12-15T22:39:19.796Z,21.77
2018-12-15T22:43:31.899Z,19.67
2018-12-15T22:47:43.482Z,27.10
2018-12-15T22:51:55.150Z,28.40
2018-12-15T22:56:06.906Z,24.17
2018-12-15T23:00:18.930Z,19.27
2018-12-15T23:04:31.078Z,21.70
2018-12-15T23:08:43.126Z,18.20
2018-12-15T23:12:55.172Z,20.23
2018-12-15T23:17:07.155Z,19.23
2018-12-15T23:21:19.291Z,18.27
2018-12-15T23:25:31.263Z,22.77
2018-12-15T23:29:43.576Z,22.27
2018-12-15T23:33:55.701Z,22.30
2018-12-15T23:38:07.734Z,17.80
2018-12-15T23:42:19.932Z,16.70
2018-12-15T23:46:31.992Z,16.40
2018-12-15T23:50:43.920Z,17.83
2018-12-15T23:54:55.955Z,25.10
2018-12-15T23:59:08.044Z,21.03
